createdAt,value
2024-01-05T00:00:21.088Z,9.2
2024-01-05T00:02:51.368Z,9.3
2024-01-05T00:05:21.696Z,9.3
2024-01-05T00:07:51.640Z,9.2
2024-01-05T00:10:21.712Z,9.1
2024-01-05T00:12:52.917Z,9.1
2024-01-05T00:15:24.607Z,9.2
2024-01-05T00:17:55.020Z,9.2
2024-01-05T00:20:27.083Z,9.1
2024-01-05T00:22:57.388Z,9.2
2024-01-05T00:25:27.557Z,9.1
2024-01-05T00:27:58.049Z,9.1
2024-01-05T00:30:28.059Z,9.1
2024-01-05T00:32:59.494Z,9.1
2024-01-05T00:35:35.921Z,9.1
2024-01-05T00:38:07.633Z,9
2024-01-05T00:40:37.682Z,9
2024-01-05T00:43:08.059Z,8.9
2024-01-05T00:45:38.470Z,8.9
2024-01-05T00:48:10.704Z,8.8
2024-01-05T00:50:39.438Z,8.8
2024-01-05T00:53:12.453Z,8.7
2024-01-05T00:55:42.860Z,8.6
2024-01-05T00:58:12.867Z,8.7
2024-01-05T01:00:47.027Z,8.7
2024-01-05T01:03:18.064Z,8.7
2024-01-05T01:05:48.251Z,8.7
2024-01-05T01:08:18.670Z,8.7
2024-01-05T01:10:48.764Z,8.8
2024-01-05T01:13:20.085Z,8.8
2024-01-05T01:15:50.410Z,8.8
2024-01-05T01:18:21.090Z,8.7
2024-01-05T01:20:49.874Z,8.7
2024-01-05T01:23:19.952Z,8.6
2024-01-05T01:25:50.160Z,8.5
2024-01-05T01:28:20.145Z,8.5
2024-01-05T01:30:50.805Z,8.5
2024-01-05T01:33:22.343Z,8.5
2024-01-05T01:35:52.600Z,8.4
2024-01-05T01:38:22.966Z,8.4
2024-01-05T01:40:53.431Z,8.4
2024-01-05T01:43:25.824Z,8.3
2024-01-05T01:45:56.432Z,8.3
2024-01-05T01:48:29.508Z,8.2
2024-01-05T01:51:00.001Z,8.2
2024-01-05T01:53:29.182Z,8.2
2024-01-05T01:56:00.338Z,8.2
2024-01-05T01:58:30.611Z,8.2
2024-01-05T02:01:00.810Z,8.2
2024-01-05T02:03:32.553Z,8.2
2024-01-05T02:06:03.007Z,8.2
2024-01-05T02:08:36.200Z,8.2
2024-01-05T02:11:07.470Z,8.2
2024-01-05T02:13:39.176Z,8.3
2024-01-05T02:16:09.564Z,8.3
2024-01-05T02:18:43.336Z,8.3
2024-01-05T02:21:18.307Z,8.3
2024-01-05T02:23:50.689Z,8.2
2024-01-05T02:26:22.035Z,8.2
2024-01-05T02:28:54.133Z,8.2
2024-01-05T02:31:24.777Z,8.2
2024-01-05T02:33:55.490Z,8.2
2024-01-05T02:36:25.662Z,8.2
2024-01-05T02:38:54.781Z,8.1
2024-01-05T02:41:24.767Z,8
2024-01-05T02:43:54.835Z,8
2024-01-05T02:46:23.651Z,7.8
2024-01-05T02:48:53.789Z,7.8
2024-01-05T02:51:23.902Z,7.8
2024-01-05T02:53:55.562Z,7.8
2024-01-05T02:56:25.884Z,7.8
2024-01-05T02:58:56.619Z,7.8
2024-01-05T03:01:28.299Z,7.9
2024-01-05T03:03:58.617Z,7.9
2024-01-05T03:06:28.839Z,7.9
2024-01-05T03:08:59.388Z,8
2024-01-05T03:11:29.775Z,8
2024-01-05T03:14:01.376Z,8
2024-01-05T03:16:31.456Z,8
2024-01-05T03:19:02.137Z,8.1
2024-01-05T03:21:33.775Z,8.1
2024-01-05T03:24:04.106Z,8
2024-01-05T03:26:36.480Z,8.1
2024-01-05T03:29:07.326Z,8
2024-01-05T03:31:37.857Z,8
2024-01-05T03:34:08.189Z,8
2024-01-05T03:36:38.591Z,8
2024-01-05T03:39:09.893Z,7.9
2024-01-05T03:41:40.271Z,7.9
2024-01-05T03:44:09.157Z,7.9
2024-01-05T03:46:39.689Z,7.9
2024-01-05T03:49:11.450Z,7.9
2024-01-05T03:51:41.464Z,7.8
2024-01-05T03:54:11.943Z,7.8
2024-01-05T03:56:41.042Z,7.8
2024-01-05T03:59:10.805Z,7.8
2024-01-05T04:01:40.822Z,7.8
2024-01-05T04:04:11.146Z,7.7
2024-01-05T04:06:41.981Z,7.7
2024-01-05T04:09:13.380Z,7.7
2024-01-05T04:11:43.815Z,7.7
2024-01-05T04:14:13.827Z,7.7
2024-01-05T04:16:47.278Z,7.7
2024-01-05T04:19:17.787Z,7.8
2024-01-05T04:21:48.225Z,7.8
2024-01-05T04:24:17.303Z,7.8
2024-01-05T04:26:49.440Z,7.8
2024-01-05T04:29:20.567Z,7.9
2024-01-05T04:31:51.014Z,7.9
2024-01-05T04:34:21.331Z,7.9
2024-01-05T04:36:51.801Z,7.9
2024-01-05T04:39:23.348Z,7.7
2024-01-05T04:41:54.168Z,7.8
2024-01-05T04:44:25.776Z,7.7
2024-01-05T04:46:56.808Z,7.7
2024-01-05T04:49:30.145Z,7.8
2024-01-05T04:52:05.316Z,7.8
2024-01-05T04:54:35.715Z,7.8
2024-01-05T04:57:06.588Z,7.8
2024-01-05T04:59:37.095Z,7.8
2024-01-05T05:02:07.796Z,7.8
2024-01-05T05:04:38.229Z,7.8
2024-01-05T05:07:08.610Z,7.7
2024-01-05T05:09:38.782Z,7.7
2024-01-05T05:12:09.225Z,7.7
2024-01-05T05:14:41.610Z,7.7
2024-01-05T05:17:12.126Z,7.7
2024-01-05T05:19:44.838Z,7.7
2024-01-05T05:22:13.669Z,7.7
2024-01-05T05:24:45.542Z,7.7
2024-01-05T05:27:18.803Z,7.7
2024-01-05T05:29:49.898Z,7.7
2024-01-05T05:32:19.992Z,7.7
2024-01-05T05:34:52.517Z,7.7
2024-01-05T05:37:23.157Z,7.8
2024-01-05T05:39:53.765Z,7.8
2024-01-05T05:42:25.361Z,7.8
2024-01-05T05:44:55.701Z,7.8
2024-01-05T05:47:27.008Z,7.7
2024-01-05T05:49:57.762Z,7.7
2024-01-05T05:52:29.906Z,7.6
2024-01-05T05:55:00.914Z,7.7
2024-01-05T05:57:32.262Z,7.7
2024-01-05T06:00:03.760Z,7.7
2024-01-05T06:02:34.477Z,7.7
2024-01-05T06:05:07.979Z,7.7
2024-01-05T06:07:38.280Z,7.7
2024-01-05T06:10:10.725Z,7.7
2024-01-05T06:12:43.167Z,7.7
2024-01-05T06:15:13.420Z,7.8
2024-01-05T06:17:43.710Z,7.8
2024-01-05T06:20:13.779Z,7.8
2024-01-05T06:22:44.917Z,7.7
2024-01-05T06:25:15.015Z,7.7
2024-01-05T06:27:45.355Z,7.6
2024-01-05T06:30:16.538Z,7.7
2024-01-05T06:32:46.479Z,7.6
2024-01-05T06:35:16.867Z,7.6
2024-01-05T06:37:47.106Z,7.6
2024-01-05T06:40:22.293Z,7.6
2024-01-05T06:42:52.924Z,7.6
2024-01-05T06:45:23.631Z,7.7
2024-01-05T06:47:54.106Z,7.7
2024-01-05T06:50:23.217Z,7.8
2024-01-05T06:52:53.953Z,7.9
2024-01-05T06:55:24.671Z,7.9
2024-01-05T06:57:55.044Z,8
2024-01-05T07:00:25.637Z,8.1
2024-01-05T07:02:57.328Z,8.2
2024-01-05T07:05:27.639Z,8.3
2024-01-05T07:07:57.571Z,8.3
2024-01-05T07:10:28.139Z,8.4
2024-01-05T07:12:58.029Z,8.4
2024-01-05T07:15:28.197Z,8.4
2024-01-05T07:17:57.284Z,8.4
2024-01-05T07:20:26.124Z,8.4
2024-01-05T07:22:56.018Z,8.4
2024-01-05T07:25:26.365Z,8.4
2024-01-05T07:27:56.742Z,8.4
2024-01-05T07:30:27.372Z,8.5
2024-01-05T07:32:58.098Z,8.6
2024-01-05T07:35:30.780Z,8.7
2024-01-05T07:37:58.570Z,8.7
2024-01-05T07:40:29.064Z,8.7
2024-01-05T07:42:57.789Z,8.8
2024-01-05T07:45:26.797Z,8.8
2024-01-05T07:47:57.025Z,8.8
2024-01-05T07:50:27.026Z,8.8
2024-01-05T07:52:57.187Z,8.8
2024-01-05T07:55:27.635Z,8.9
2024-01-05T07:57:58.137Z,9
2024-01-05T08:00:28.448Z,9.1
2024-01-05T08:02:59.228Z,9.2
2024-01-05T08:05:30.514Z,9.3
2024-01-05T08:08:00.800Z,9.4
2024-01-05T08:10:31.103Z,9.6
2024-01-05T08:13:01.724Z,9.6
2024-01-05T08:15:33.187Z,9.7
2024-01-05T08:18:04.171Z,9.8
2024-01-05T08:20:34.945Z,9.9
2024-01-05T08:23:06.924Z,10
2024-01-05T08:25:37.827Z,10.1
2024-01-05T08:28:08.013Z,10.2
2024-01-05T08:30:38.445Z,10.2
2024-01-05T08:33:09.065Z,10.3
2024-01-05T08:35:39.294Z,10.3
2024-01-05T08:38:09.696Z,10.4
2024-01-05T08:40:41.369Z,10.6
2024-01-05T08:43:21.164Z,10.6
2024-01-05T08:45:51.423Z,10.7
2024-01-05T08:48:22.232Z,10.8
2024-01-05T08:50:52.443Z,10.9
2024-01-05T08:53:23.159Z,11
2024-01-05T08:55:55.491Z,11.1
2024-01-05T08:58:25.798Z,11.2
2024-01-05T09:00:56.080Z,11.3
2024-01-05T09:03:28.203Z,11.4
2024-01-05T09:05:59.211Z,11.5
2024-01-05T09:08:29.279Z,11.5
2024-01-05T09:11:01.006Z,11.6
2024-01-05T09:13:34.906Z,11.8
2024-01-05T09:16:02.179Z,11.9
2024-01-05T09:18:32.605Z,12
2024-01-05T09:21:03.235Z,12.1
2024-01-05T09:23:33.406Z,12.3
2024-01-05T09:26:04.621Z,12.3
2024-01-05T09:28:35.026Z,12.5
2024-01-05T09:31:05.520Z,12.6
2024-01-05T09:33:38.475Z,12.7
2024-01-05T09:36:08.838Z,12.8
2024-01-05T09:38:39.075Z,12.9
2024-01-05T09:41:09.455Z,13
2024-01-05T09:43:40.548Z,13.1
2024-01-05T09:46:11.945Z,13.2
2024-01-05T09:48:48.479Z,13.3
2024-01-05T09:51:18.120Z,13.4
2024-01-05T09:53:48.045Z,13.5
2024-01-05T09:56:18.125Z,13.6
2024-01-05T09:58:48.650Z,13.6
2024-01-05T10:01:19.649Z,13.7
2024-01-05T10:03:51.269Z,13.8
2024-01-05T10:06:22.634Z,13.9
2024-01-05T10:08:52.201Z,13.9
2024-01-05T10:11:22.424Z,14
2024-01-05T10:13:51.218Z,14.1
2024-01-05T10:16:22.559Z,14.2
2024-01-05T10:18:55.516Z,14.3
2024-01-05T10:21:26.409Z,14.4
2024-01-05T10:23:57.700Z,14.4
2024-01-05T10:26:28.261Z,14.5
2024-01-05T10:28:58.538Z,14.5
2024-01-05T10:31:29.175Z,14.6
2024-01-05T10:34:00.023Z,14.7
2024-01-05T10:36:30.601Z,14.7
2024-01-05T10:39:02.919Z,14.8
2024-01-05T10:41:36.213Z,14.9
2024-01-05T10:44:09.346Z,15
2024-01-05T10:46:42.403Z,15
2024-01-05T10:49:12.845Z,15
2024-01-05T10:51:44.496Z,15.1
2024-01-05T10:54:14.885Z,15.1
2024-01-05T10:56:45.425Z,15.1
2024-01-05T10:59:16.126Z,15.2
2024-01-05T11:01:47.039Z,15.2
2024-01-05T11:04:17.688Z,15.2
2024-01-05T11:06:46.764Z,15.3
2024-01-05T11:09:15.835Z,15.3
2024-01-05T11:11:46.530Z,15.4
2024-01-05T11:14:18.510Z,15.4
2024-01-05T11:16:49.509Z,15.4
2024-01-05T11:19:19.828Z,15.4
2024-01-05T11:21:51.507Z,15.5
2024-01-05T11:24:22.702Z,15.5
2024-01-05T11:26:53.156Z,15.6
2024-01-05T11:29:23.689Z,15.6
2024-01-05T11:34:24.795Z,15.7
2024-01-05T11:36:56.379Z,15.7
2024-01-05T11:39:26.760Z,15.7
2024-01-05T11:41:58.334Z,15.8
2024-01-05T11:44:29.914Z,15.8
2024-01-05T11:47:00.487Z,15.8
2024-01-05T11:49:34.041Z,15.9
2024-01-05T11:52:05.004Z,15.9
2024-01-05T11:54:37.093Z,15.9
2024-01-05T11:57:07.416Z,15.9
2024-01-05T11:59:38.323Z,15.9
2024-01-05T12:02:07.129Z,15.9
2024-01-05T12:04:37.481Z,15.9
2024-01-05T12:07:07.623Z,15.9
2024-01-05T12:09:39.100Z,15.9
2024-01-05T12:12:11.372Z,15.9
2024-01-05T12:14:45.286Z,16
2024-01-05T12:17:16.940Z,15.9
2024-01-05T12:19:47.726Z,16
2024-01-05T12:22:18.022Z,16
2024-01-05T12:24:48.303Z,15.9
2024-01-05T12:27:18.769Z,16
2024-01-05T12:29:50.273Z,16
2024-01-05T12:32:20.515Z,16
2024-01-05T12:34:51.244Z,16
2024-01-05T12:37:20.150Z,16
2024-01-05T12:39:50.058Z,16
2024-01-05T12:42:20.173Z,15.9
2024-01-05T12:44:50.486Z,16
2024-01-05T12:47:22.185Z,16
2024-01-05T12:49:56.086Z,16
2024-01-05T12:52:26.227Z,16
2024-01-05T12:55:03.834Z,16
2024-01-05T12:57:36.245Z,16
2024-01-05T13:00:06.818Z,16
2024-01-05T13:02:38.634Z,15.9
2024-01-05T13:05:08.958Z,15.9
2024-01-05T13:07:40.483Z,15.9
2024-01-05T13:10:10.648Z,15.9
2024-01-05T13:12:44.572Z,15.8
2024-01-05T13:15:17.057Z,15.8
2024-01-05T13:17:49.307Z,15.8
2024-01-05T13:20:28.705Z,15.8
2024-01-05T13:23:01.067Z,15.8
2024-01-05T13:25:31.576Z,15.7
2024-01-05T13:28:00.503Z,15.6
2024-01-05T13:30:30.940Z,15.6
2024-01-05T13:33:01.142Z,15.5
2024-01-05T13:35:29.773Z,15.4
2024-01-05T13:38:00.039Z,15.4
2024-01-05T13:40:30.015Z,15.4
2024-01-05T13:43:00.241Z,15.4
2024-01-05T13:45:31.046Z,15.3
2024-01-05T13:48:01.633Z,15.3
2024-01-05T13:50:30.476Z,15.3
2024-01-05T13:53:00.435Z,15.3
2024-01-05T13:55:31.608Z,15.3
2024-01-05T13:58:01.755Z,15.2
2024-01-05T14:00:31.066Z,15.1
2024-01-05T14:03:01.748Z,15.1
2024-01-05T14:05:32.153Z,15.1
2024-01-05T14:08:02.422Z,14.9
2024-01-05T14:10:32.712Z,15
2024-01-05T14:13:02.078Z,15
2024-01-05T14:15:32.670Z,14.9
2024-01-05T14:18:03.568Z,14.9
2024-01-05T14:20:31.739Z,14.9
2024-01-05T14:23:02.108Z,14.8
2024-01-05T14:25:32.288Z,14.8
2024-01-05T14:28:02.820Z,14.8
2024-01-05T14:30:33.378Z,14.7
2024-01-05T14:33:03.813Z,14.6
2024-01-05T14:35:35.394Z,14.6
2024-01-05T14:38:05.896Z,14.6
2024-01-05T14:40:35.995Z,14.6
2024-01-05T14:43:06.064Z,14.6
2024-01-05T14:45:36.884Z,14.5
2024-01-05T14:48:07.753Z,14.5
2024-01-05T14:50:38.335Z,14.5
2024-01-05T14:53:11.358Z,14.4
2024-01-05T14:55:40.354Z,14.4
2024-01-05T14:58:10.924Z,14.4
2024-01-05T15:00:42.934Z,14.2
2024-01-05T15:03:13.394Z,14.3
2024-01-05T15:05:46.766Z,14.2
2024-01-05T15:08:16.992Z,14.2
2024-01-05T15:10:45.857Z,14.2
2024-01-05T15:13:16.402Z,14.1
2024-01-05T15:15:47.095Z,14.1
2024-01-05T15:18:16.068Z,14.1
2024-01-05T15:20:46.373Z,14.1
2024-01-05T15:23:16.587Z,14
2024-01-05T15:25:46.790Z,14
2024-01-05T15:28:17.610Z,14
2024-01-05T15:30:48.152Z,14
2024-01-05T15:33:18.578Z,13.9
2024-01-05T15:35:48.612Z,14
2024-01-05T15:38:19.071Z,14
2024-01-05T15:40:49.823Z,14
2024-01-05T15:43:20.253Z,14
2024-01-05T15:45:50.623Z,13.9
2024-01-05T15:48:21.170Z,13.9
2024-01-05T15:50:51.058Z,13.9
2024-01-05T15:53:21.356Z,13.9
2024-01-05T15:55:58.150Z,13.9
2024-01-05T15:58:22.474Z,13.9
2024-01-05T16:00:51.596Z,13.8
2024-01-05T16:03:21.784Z,13.8
2024-01-05T16:05:51.157Z,13.8
2024-01-05T16:08:21.189Z,13.8
2024-01-05T16:10:51.415Z,13.8
2024-01-05T16:13:21.738Z,13.8
2024-01-05T16:15:54.949Z,13.8
2024-01-05T16:18:25.622Z,13.8
2024-01-05T16:20:55.816Z,13.8
2024-01-05T16:23:30.043Z,13.7
2024-01-05T16:26:00.241Z,13.6
2024-01-05T16:28:30.653Z,13.6
2024-01-05T16:31:04.366Z,13.6
2024-01-05T16:33:35.847Z,13.6
2024-01-05T16:36:06.282Z,13.7
2024-01-05T16:38:36.765Z,13.6
2024-01-05T16:41:08.742Z,13.7
2024-01-05T16:43:45.969Z,13.7
2024-01-05T16:46:16.784Z,13.7
2024-01-05T16:48:49.590Z,13.7
2024-01-05T16:51:19.324Z,13.7
2024-01-05T16:53:53.631Z,13.7
2024-01-05T16:56:24.998Z,13.7
2024-01-05T16:58:55.513Z,13.7
2024-01-05T17:01:29.300Z,13.8
2024-01-05T17:04:26.338Z,13.7
2024-01-05T17:07:00.088Z,13.8
2024-01-05T17:09:31.184Z,13.8
2024-01-05T17:12:01.546Z,13.8
2024-01-05T17:14:31.844Z,13.8
2024-01-05T17:17:03.620Z,13.8
2024-01-05T17:19:34.153Z,13.6
2024-01-05T17:22:04.446Z,13.6
2024-01-05T17:24:35.463Z,13.6
2024-01-05T17:27:05.802Z,13.7
2024-01-05T17:29:37.028Z,13.7
2024-01-05T17:32:09.630Z,13.7
2024-01-05T17:34:40.518Z,13.7
2024-01-05T17:37:10.784Z,13.6
2024-01-05T17:39:48.982Z,13.6
2024-01-05T17:42:20.579Z,13.6
2024-01-05T17:44:51.597Z,13.6
2024-01-05T17:47:20.754Z,13.6
2024-01-05T17:49:53.056Z,13.6
2024-01-05T17:52:26.508Z,13.6
2024-01-05T17:54:56.512Z,13.6
2024-01-05T17:57:27.875Z,13.6
2024-01-05T18:00:03.781Z,13.6
2024-01-05T18:02:34.373Z,13.5
2024-01-05T18:05:06.115Z,13.5
2024-01-05T18:07:36.974Z,13.5
2024-01-05T18:10:20.908Z,13.5
2024-01-05T18:12:55.770Z,13.6
2024-01-05T18:15:24.388Z,13.6
2024-01-05T18:17:56.274Z,13.5
2024-01-05T18:20:31.003Z,13.5
2024-01-05T18:23:02.086Z,13.5
2024-01-05T18:25:32.606Z,13.5
2024-01-05T18:28:04.028Z,13.5
2024-01-05T18:30:31.961Z,13.5
2024-01-05T18:33:02.573Z,13.5
2024-01-05T18:35:32.781Z,13.4
2024-01-05T18:38:01.420Z,13.4
2024-01-05T18:40:31.747Z,13.4
2024-01-05T18:43:00.613Z,13.4
2024-01-05T18:45:31.859Z,13.4
2024-01-05T18:48:02.383Z,13.5
2024-01-05T18:50:32.297Z,13.5
2024-01-05T18:53:02.630Z,13.4
2024-01-05T18:55:31.120Z,13.5
2024-01-05T18:58:01.370Z,13.4
2024-01-05T19:00:32.109Z,13.4
2024-01-05T19:03:02.539Z,13.4
2024-01-05T19:05:32.518Z,13.4
2024-01-05T19:08:02.615Z,13.5
2024-01-05T19:10:33.233Z,13.5
2024-01-05T19:13:01.671Z,13.4
2024-01-05T19:15:34.399Z,13.5
2024-01-05T19:18:05.182Z,13.6
2024-01-05T19:20:35.816Z,13.6
2024-01-05T19:23:06.396Z,13.6
2024-01-05T19:25:37.472Z,13.6
2024-01-05T19:28:07.686Z,13.7
2024-01-05T19:30:41.448Z,13.6
2024-01-05T19:33:11.649Z,13.7
2024-01-05T19:35:41.455Z,13.7
2024-01-05T19:38:11.690Z,13.7
2024-01-05T19:40:42.162Z,13.7
2024-01-05T19:43:13.883Z,13.7
2024-01-05T19:45:42.924Z,13.7
2024-01-05T19:48:13.542Z,13.7
2024-01-05T19:50:43.484Z,13.6
2024-01-05T19:53:13.841Z,13.6
2024-01-05T19:55:43.915Z,13.6
2024-01-05T19:58:14.622Z,13.7
2024-01-05T20:00:45.030Z,13.7
2024-01-05T20:03:15.025Z,13.6
2024-01-05T20:05:45.879Z,13.7
2024-01-05T20:08:16.231Z,13.6
2024-01-05T20:10:46.599Z,13.6
2024-01-05T20:13:17.579Z,13.5
2024-01-05T20:15:47.246Z,13.5
2024-01-05T20:18:18.266Z,13.6
2024-01-05T20:23:30.535Z,13.6
2024-01-05T20:26:05.736Z,13.7
2024-01-05T20:28:37.363Z,13.7
2024-01-05T20:31:07.616Z,13.6
2024-01-05T20:33:38.926Z,13.6
2024-01-05T20:36:10.245Z,13.6
2024-01-05T20:38:40.220Z,13.7
2024-01-05T20:41:10.574Z,13.7
2024-01-05T20:43:41.023Z,13.7
2024-01-05T20:46:11.172Z,13.7
2024-01-05T20:48:40.067Z,13.7
2024-01-05T20:51:12.868Z,13.7
2024-01-05T20:53:43.632Z,13.7
2024-01-05T20:56:14.312Z,13.7
2024-01-05T20:58:46.185Z,13.6
2024-01-05T21:01:14.973Z,13.7
2024-01-05T21:06:28.960Z,13.8
2024-01-05T21:09:02.528Z,13.8
2024-01-05T21:11:32.852Z,13.8
2024-01-05T21:14:04.315Z,13.7
2024-01-05T21:16:57.382Z,13.7
2024-01-05T21:19:38.285Z,13.8
2024-01-05T21:22:27.430Z,13.9
2024-01-05T21:24:58.589Z,13.8
2024-01-05T21:27:29.209Z,13.8
2024-01-05T21:29:59.638Z,13.7
2024-01-05T21:32:35.690Z,13.7
2024-01-05T21:35:06.728Z,13.8
2024-01-05T21:37:36.145Z,13.8
2024-01-05T21:40:06.113Z,13.7
2024-01-05T21:42:36.182Z,13.6
2024-01-05T21:45:07.772Z,13.8
2024-01-05T21:47:37.026Z,13.7
2024-01-05T21:50:07.304Z,13.8
2024-01-05T21:52:37.661Z,13.7
2024-01-05T21:55:10.771Z,13.7
2024-01-05T21:57:42.555Z,13.7
2024-01-05T22:00:12.731Z,13.7
2024-01-05T22:02:43.654Z,13.7
2024-01-05T22:05:18.227Z,13.8
2024-01-05T22:07:48.328Z,13.8
2024-01-05T22:13:10.270Z,13.8
2024-01-05T22:15:39.776Z,13.8
2024-01-05T22:18:12.555Z,13.8
2024-01-05T22:20:44.336Z,13.8
2024-01-05T22:23:13.641Z,13.7
2024-01-05T22:25:44.110Z,13.7
2024-01-05T22:28:17.951Z,13.8
2024-01-05T22:30:49.111Z,13.8
2024-01-05T22:33:21.415Z,13.8
2024-01-05T22:35:54.101Z,13.8
2024-01-05T22:38:26.636Z,13.8
2024-01-05T22:40:55.764Z,13.8
2024-01-05T22:43:26.141Z,13.8
2024-01-05T22:45:59.765Z,13.8
2024-01-05T22:48:35.237Z,13.8
2024-01-05T22:51:13.313Z,13.8
2024-01-05T22:53:45.024Z,13.7
2024-01-05T22:56:18.889Z,13.8
2024-01-05T22:58:49.759Z,13.8
2024-01-05T23:01:20.392Z,13.7
2024-01-05T23:03:54.181Z,13.8
2024-01-05T23:06:26.000Z,13.8
2024-01-05T23:08:55.875Z,13.8
2024-01-05T23:11:25.984Z,13.8
2024-01-05T23:13:56.982Z,13.7
2024-01-05T23:16:27.425Z,13.8
2024-01-05T23:18:57.530Z,13.8
2024-01-05T23:21:26.229Z,13.8
2024-01-05T23:23:56.899Z,13.8
2024-01-05T23:26:27.272Z,13.8
2024-01-05T23:28:59.899Z,13.8
2024-01-05T23:31:30.940Z,13.8
2024-01-05T23:34:08.202Z,13.8
2024-01-05T23:36:31.906Z,13.8
2024-01-05T23:39:00.815Z,13.8
2024-01-05T23:41:30.936Z,13.8
2024-01-05T23:44:00.978Z,13.7
2024-01-05T23:46:31.631Z,13.7
2024-01-05T23:49:02.203Z,13.7
2024-01-05T23:51:31.914Z,13.6
2024-01-05T23:54:02.246Z,13.6
2024-01-05T23:56:32.309Z,13.6
2024-01-05T23:59:03.102Z,13.6
